Time;durP1;ratioP1;P1;durP2;ratioP2;P2;SDS_P1;SDS_P2;PMS_P1;PMS_P2;Temp;Humidity;BMP_temperature;BMP_pressure;BME280_temperature;BME280_humidity;BME280_pressure;Samples;Min_cycle;Max_cycle;Signal;HPM_P1;HPM_P2
2023/01/03 00:02:28;;;;;;;18.85;10.93;;;;;;;4.71;100.00;102383.78;5246758;28;20609;-71
2023/01/03 00:04:59;;;;;;;19.38;11.90;;;;;;;4.59;100.00;102387.63;5248325;28;20544;-71
2023/01/03 00:07:33;;;;;;;22.60;11.75;;;;;;;4.62;100.00;102386.66;5249029;28;20053;-71
2023/01/03 00:10:08;;;;;;;18.42;9.48;;;;;;;4.57;100.00;102381.53;5249255;28;20025;-71
2023/01/03 00:12:39;;;;;;;;;;;;;;;4.61;100.00;102375.22;5248030;28;20032;-72
2023/01/03 00:15:14;;;;;;;21.33;11.63;;;;;;;4.53;100.00;102390.44;5250919;28;19922;-71
2023/01/03 00:17:45;;;;;;;24.48;11.63;;;;;;;4.50;100.00;102385.22;5250906;28;20550;-72
2023/01/03 00:20:17;;;;;;;24.40;12.98;;;;;;;4.46;100.00;102381.78;5250169;28;20041;-71
2023/01/03 00:22:48;;;;;;;24.60;12.70;;;;;;;4.43;100.00;102386.28;5251456;28;20045;-71
2023/01/03 00:25:20;;;;;;;24.05;12.63;;;;;;;4.36;100.00;102377.66;5253395;28;20540;-71
2023/01/03 00:27:51;;;;;;;28.45;12.73;;;;;;;4.35;100.00;102372.41;5253747;28;20043;-71
2023/01/03 00:30:22;;;;;;;20.02;12.30;;;;;;;4.32;100.00;102378.66;5245814;28;20064;-71
2023/01/03 00:32:54;;;;;;;20.98;11.50;;;;;;;4.32;100.00;102376.88;5249401;28;20036;-71
2023/01/03 00:35:25;;;;;;;23.45;12.32;;;;;;;4.33;100.00;102377.72;5252685;28;20491;-71
2023/01/03 00:37:56;;;;;;;22.05;12.68;;;;;;;4.28;100.00;102385.78;5251137;28;20045;-71
2023/01/03 00:40:27;;;;;;;24.77;12.88;;;;;;;4.22;100.00;102382.41;5253297;28;20158;-70
2023/01/03 00:45:48;;;;;;;21.70;12.65;;;;;;;4.23;100.00;102390.31;5250609;28;20076;-70
2023/01/03 00:48:20;;;;;;;24.25;14.05;;;;;;;4.10;100.00;102389.75;5251011;28;20124;-71
2023/01/03 00:50:52;;;;;;;23.00;13.57;;;;;;;4.10;100.00;102404.72;5252927;28;20059;-71
2023/01/03 00:53:23;;;;;;;23.30;13.45;;;;;;;4.05;100.00;102407.50;5251346;28;20029;-70
2023/01/03 00:55:54;;;;;;;21.45;13.52;;;;;;;4.03;100.00;102408.44;5251636;28;20040;-70
2023/01/03 00:58:29;;;;;;;22.92;13.80;;;;;;;3.94;100.00;102406.88;5249355;28;20037;-71
2023/01/03 01:01:10;;;;;;;25.50;13.82;;;;;;;3.96;100.00;102412.13;5251750;28;20032;-70
2023/01/03 01:03:45;;;;;;;23.65;12.88;;;;;;;3.89;100.00;102398.19;5250446;28;20040;-71
2023/01/03 01:06:20;;;;;;;23.25;13.73;;;;;;;3.87;100.00;102413.19;5248053;28;20435;-72
2023/01/03 01:08:54;;;;;;;22.27;13.55;;;;;;;3.83;100.00;102411.53;5249029;28;20166;-70
2023/01/03 01:11:26;;;;;;;28.30;13.57;;;;;;;3.85;100.00;102420.28;5250755;28;20029;-71
2023/01/03 01:13:58;;;;;;;29.02;13.98;;;;;;;3.78;100.00;102418.69;5251631;28;20117;-71
2023/01/03 01:16:31;;;;;;;23.27;14.30;;;;;;;3.79;100.00;102421.28;5251051;28;20025;-71
2023/01/03 01:19:02;;;;;;;24.20;14.20;;;;;;;3.76;100.00;102418.72;5249709;28;20072;-70
2023/01/03 01:21:33;;;;;;;25.48;14.85;;;;;;;3.71;100.00;102423.25;5249247;28;20490;-71
2023/01/03 01:24:05;;;;;;;22.35;14.52;;;;;;;3.70;100.00;102429.41;5249937;28;20032;-71
2023/01/03 01:26:36;;;;;;;22.30;14.02;;;;;;;3.65;100.00;102429.53;5248079;28;20526;-71
2023/01/03 01:29:10;;;;;;;25.95;15.85;;;;;;;3.62;100.00;102437.50;5250218;28;20035;-71
2023/01/03 01:31:43;;;;;;;24.50;14.65;;;;;;;3.55;100.00;102435.91;5249342;28;20033;-70
2023/01/03 01:34:15;;;;;;;22.20;14.02;;;;;;;3.52;100.00;102441.25;5248978;28;20065;-71
2023/01/03 01:36:46;;;;;;;22.92;14.27;;;;;;;3.48;100.00;102432.53;5251278;28;20041;-70
2023/01/03 01:39:21;;;;;;;24.58;14.60;;;;;;;3.40;100.00;102433.59;5249236;28;20036;-70
2023/01/03 01:45:11;;;;;;;27.75;16.35;;;;;;;3.33;100.00;102444.25;5248301;28;20033;-70
2023/01/03 01:47:49;;;;;;;23.73;14.68;;;;;;;3.29;100.00;102447.84;5257274;28;20024;-70
2023/01/03 01:50:29;;;;;;;25.23;14.93;;;;;;;3.28;100.00;102454.06;5249034;28;20493;-70
2023/01/03 01:53:21;;;;;;;27.63;15.18;;;;;;;3.31;100.00;102451.34;5247743;28;20064;-70
2023/01/03 01:55:55;;;;;;;29.10;16.15;;;;;;;3.26;100.00;102461.13;5250236;28;20040;-70
2023/01/03 01:58:30;;;;;;;28.35;16.15;;;;;;;3.30;100.00;102465.44;5247346;28;20376;-70
2023/01/03 02:01:05;;;;;;;24.25;15.77;;;;;;;3.31;100.00;102467.16;5248709;28;20051;-71
2023/01/03 02:03:37;;;;;;;28.23;16.05;;;;;;;3.17;100.00;102463.09;5248380;28;20028;-70
2023/01/03 02:06:12;;;;;;;25.38;15.95;;;;;;;3.17;100.00;102463.09;5248504;28;20033;-70
2023/01/03 02:08:44;;;;;;;29.38;17.02;;;;;;;3.11;100.00;102456.16;5249554;28;20491;-70
2023/01/03 02:11:15;;;;;;;29.02;16.30;;;;;;;3.12;100.00;102460.50;5250180;28;20025;-70
2023/01/03 02:14:11;;;;;;;27.20;16.08;;;;;;;3.05;100.00;102451.88;5249633;28;20517;-70
2023/01/03 02:17:11;;;;;;;29.58;16.75;;;;;;;3.12;100.00;102456.09;5249441;28;20040;-70
2023/01/03 02:20:04;;;;;;;28.73;16.38;;;;;;;3.05;100.00;102459.78;5249015;28;20139;-70
2023/01/03 02:22:47;;;;;;;27.48;15.77;;;;;;;3.06;100.00;102463.28;5249933;28;20060;-70
2023/01/03 02:25:34;;;;;;;27.92;16.00;;;;;;;3.07;100.00;102465.88;5259026;28;20324;-71
2023/01/03 02:28:23;;;;;;;27.98;16.02;;;;;;;2.99;100.00;102472.19;5248705;28;20028;-70
2023/01/03 02:30:54;;;;;;;26.02;15.13;;;;;;;3.01;100.00;102462.47;5246553;28;20024;-70
2023/01/03 02:33:44;;;;;;;31.88;16.58;;;;;;;2.96;100.00;102470.50;5250142;28;20048;-70
2023/01/03 02:36:33;;;;;;;26.15;16.15;;;;;;;3.00;100.00;102481.84;5243786;28;20441;-70
2023/01/03 02:39:24;;;;;;;26.63;16.27;;;;;;;2.98;100.00;102471.31;5250041;28;20156;-70
2023/01/03 02:45:13;;;;;;;32.33;16.70;;;;;;;2.97;100.00;102466.94;5245680;28;20429;-71
2023/01/03 02:47:54;;;;;;;28.45;16.55;;;;;;;2.97;100.00;102463.44;5247198;28;20074;-70
2023/01/03 02:50:33;;;;;;;29.52;16.40;;;;;;;2.92;100.00;102471.44;5244239;28;20036;-70
2023/01/03 02:53:08;;;;;;;29.48;16.52;;;;;;;2.88;100.00;102465.38;5245791;28;20142;-70
2023/01/03 02:55:42;;;;;;;28.23;15.55;;;;;;;2.88;100.00;102465.38;5245708;28;20040;-70
2023/01/03 02:58:22;;;;;;;24.10;15.48;;;;;;;2.90;100.00;102457.44;5245070;28;20091;-70
2023/01/03 03:00:55;;;;;;;31.40;16.33;;;;;;;2.85;100.00;102459.28;5247460;28;20330;-70
2023/01/03 03:03:31;;;;;;;25.27;15.73;;;;;;;2.83;100.00;102463.69;5248926;28;20534;-71
2023/01/03 03:06:40;;;;;;;27.77;15.02;;;;;;;2.84;100.00;102455.78;5245379;28;20025;-70
2023/01/03 03:09:12;;;;;;;24.40;14.52;;;;;;;2.83;100.00;102461.94;5248598;28;20029;-70
2023/01/03 03:14:39;;;;;;;26.35;14.95;;;;;;;2.81;100.00;102466.34;5249606;28;20431;-70
2023/01/03 03:17:14;;;;;;;25.42;15.95;;;;;;;2.77;100.00;102471.72;5245773;28;20498;-71
2023/01/03 03:25:52;;;;;;;33.03;15.63;;;;;;;2.77;100.00;102472.59;5246650;28;20032;-71
2023/01/03 03:28:36;;;;;;;27.15;15.02;;;;;;;2.66;100.00;102454.31;5248991;28;20057;-70
2023/01/03 03:31:16;;;;;;;25.77;14.10;;;;;;;2.68;100.00;102459.56;5248882;28;20123;-70
2023/01/03 03:34:19;;;;;;;27.90;15.15;;;;;;;2.67;100.00;102453.44;5242699;28;20082;-70
2023/01/03 03:37:11;;;;;;;30.25;14.18;;;;;;;2.71;100.00;102460.38;5245389;28;20074;-71
2023/01/03 03:46:15;;;;;;;26.35;15.25;;;;;;;2.71;100.00;102468.28;5246155;28;20049;-71
2023/01/03 03:52:02;;;;;;;27.55;15.38;;;;;;;2.65;100.00;102462.28;5250452;28;20123;-70
2023/01/03 03:54:37;;;;;;;27.08;14.20;;;;;;;2.64;100.00;102463.16;5252099;28;20162;-71
2023/01/03 03:57:12;;;;;;;25.05;15.15;;;;;;;2.61;100.00;102461.44;5249291;28;20032;-71
2023/01/03 03:59:50;;;;;;;26.58;15.43;;;;;;;2.59;100.00;102457.09;5251846;28;20029;-70
2023/01/03 04:02:23;;;;;;;29.35;15.05;;;;;;;2.56;100.00;102458.00;5252263;28;20394;-70
2023/01/03 04:04:59;;;;;;;25.75;14.90;;;;;;;2.62;100.00;102459.69;5254101;28;20038;-70
2023/01/03 04:07:30;;;;;;;26.63;14.60;;;;;;;2.57;100.00;102456.25;5252364;28;20079;-70
2023/01/03 04:10:04;;;;;;;26.08;14.55;;;;;;;2.60;100.00;102464.09;5243400;28;20148;-70
2023/01/03 04:12:35;;;;;;;24.83;14.70;;;;;;;2.58;100.00;102464.13;5244735;28;20032;-71
2023/01/03 04:15:07;;;;;;;29.60;16.10;;;;;;;2.62;100.00;102457.91;5252322;28;20036;-71
2023/01/03 04:17:38;;;;;;;26.27;15.32;;;;;;;2.59;100.00;102467.63;5251279;28;20049;-70
2023/01/03 04:20:10;;;;;;;25.60;14.90;;;;;;;2.58;100.00;102464.13;5251770;28;20483;-70
2023/01/03 04:22:42;;;;;;;27.50;15.23;;;;;;;2.61;100.00;102456.19;5252543;28;20033;-71
2023/01/03 04:25:13;;;;;;;29.45;15.70;;;;;;;2.55;100.00;102451.88;5251312;28;20241;-70
2023/01/03 04:27:44;;;;;;;25.75;15.02;;;;;;;2.68;100.00;102459.56;5249943;28;20028;-70
2023/01/03 04:30:16;;;;;;;27.50;15.50;;;;;;;2.64;100.00;102452.63;5252131;28;20033;-70
2023/01/03 04:32:47;;;;;;;26.15;15.15;;;;;;;2.61;100.00;102460.56;5252976;28;20031;-70
2023/01/03 04:35:19;;;;;;;26.88;15.90;;;;;;;2.65;100.00;102455.22;5251757;28;20112;-71
2023/01/03 04:37:50;;;;;;;26.77;15.50;;;;;;;2.64;100.00;102455.25;5252178;28;20033;-71
2023/01/03 04:40:21;;;;;;;29.45;15.95;;;;;;;2.62;100.00;102454.41;5251824;28;20090;-71
2023/01/03 04:45:42;;;;;;;35.10;18.13;;;;;;;2.61;100.00;102460.56;5251700;28;20032;-70
2023/01/03 04:48:14;;;;;;;32.97;18.80;;;;;;;2.63;100.00;102461.44;5251049;28;20037;-70
2023/01/03 04:50:56;;;;;;;32.00;17.63;;;;;;;2.55;100.00;102465.06;5251140;28;20036;-70
2023/01/03 04:53:27;;;;;;;30.60;18.15;;;;;;;2.64;100.00;102468.44;5245745;28;20391;-71
2023/01/03 04:55:59;;;;;;;38.78;20.25;;;;;;;2.58;100.00;102460.63;5250269;28;20321;-70
2023/01/03 04:58:30;;;;;;;35.80;18.67;;;;;;;2.54;100.00;102462.44;5245514;28;20506;-70
2023/01/03 05:01:03;;;;;;;34.50;19.77;;;;;;;2.55;100.00;102464.16;5248929;28;20539;-71
2023/01/03 05:03:36;;;;;;;38.03;19.43;;;;;;;2.46;100.00;102457.31;5250780;28;20185;-70
2023/01/03 05:06:08;;;;;;;35.78;20.10;;;;;;;2.62;100.00;102457.03;5252871;28;20136;-70
2023/01/03 05:08:40;;;;;;;39.05;20.13;;;;;;;2.52;100.00;102448.44;5255722;28;20668;-71
2023/01/03 05:11:12;;;;;;;42.05;20.42;;;;;;;2.52;100.00;102449.28;5255492;28;20025;-71
2023/01/03 05:13:43;;;;;;;34.45;20.02;;;;;;;2.63;100.00;102446.47;5253877;28;20039;-71
2023/01/03 05:16:14;;;;;;;37.65;19.40;;;;;;;2.64;100.00;102457.88;5244480;28;20029;-71
2023/01/03 05:18:47;;;;;;;36.85;19.23;;;;;;;2.60;100.00;102446.53;5253202;28;20107;-71
2023/01/03 05:27:04;;;;;;;36.08;20.05;;;;;;;2.54;100.00;102447.50;5256295;28;20044;-70
2023/01/03 05:29:35;;;;;;;35.78;19.40;;;;;;;2.51;100.00;102441.41;5256964;28;20124;-70
2023/01/03 05:32:07;;;;;;;34.85;19.27;;;;;;;2.56;100.00;102447.47;5256730;28;20551;-70
2023/01/03 05:34:38;;;;;;;35.17;19.27;;;;;;;2.59;100.00;102442.16;5251794;28;20111;-70
2023/01/03 05:37:09;;;;;;;33.50;19.52;;;;;;;2.59;100.00;102441.28;5250754;28;20033;-71
2023/01/03 05:39:41;;;;;;;31.58;17.90;;;;;;;2.52;100.00;102436.13;5255809;28;20028;-71
2023/01/03 05:42:12;;;;;;;33.45;17.92;;;;;;;2.56;100.00;102429.03;5255338;28;20381;-71
2023/01/03 05:44:43;;;;;;;33.67;18.13;;;;;;;2.60;100.00;102427.22;5255740;28;20801;-70
2023/01/03 05:47:14;;;;;;;34.90;17.23;;;;;;;2.58;100.00;102429.00;5258141;28;20417;-71
2023/01/03 05:49:46;;;;;;;34.47;17.95;;;;;;;2.58;100.00;102442.19;5271631;28;20471;-70
2023/01/03 05:52:17;;;;;;;33.38;17.83;;;;;;;2.66;100.00;102442.91;5252179;28;20025;-71
2023/01/03 05:54:48;;;;;;;30.77;16.42;;;;;;;2.68;100.00;102441.97;5257809;28;20561;-71
2023/01/03 05:57:20;;;;;;;37.53;17.50;;;;;;;2.66;100.00;102427.09;5246868;28;20025;-71
2023/01/03 05:59:51;;;;;;;36.78;16.20;;;;;;;2.68;100.00;102433.22;5249295;28;20529;-71
2023/01/03 06:02:22;;;;;;;32.63;16.42;;;;;;;2.70;100.00;102428.78;5249087;28;20063;-70
2023/01/03 06:04:53;;;;;;;31.15;15.40;;;;;;;2.82;100.00;102420.66;5254341;28;20041;-71
2023/01/03 06:07:25;;;;;;;32.75;15.85;;;;;;;2.82;100.00;102425.03;5246332;28;20037;-71
2023/01/03 06:09:56;;;;;;;31.77;14.63;;;;;;;2.92;100.00;102422.22;5249790;28;20052;-70
2023/01/03 06:12:28;;;;;;;35.63;15.65;;;;;;;2.96;100.00;102420.41;5251757;28;20104;-71
2023/01/03 06:14:59;;;;;;;32.47;16.15;;;;;;;3.03;100.00;102418.50;5254048;28;20039;-71
2023/01/03 06:20:20;;;;;;;28.73;15.38;;;;;;;3.13;100.00;102414.81;5250658;28;20041;-70
2023/01/03 06:22:53;;;;;;;34.25;15.07;;;;;;;3.17;100.00;102418.25;5253052;28;20028;-70
2023/01/03 06:25:24;;;;;;;27.85;14.68;;;;;;;3.24;100.00;102423.38;5254941;28;20044;-70
2023/01/03 06:27:56;;;;;;;30.00;15.20;;;;;;;3.27;100.00;102409.25;5251490;28;20417;-70
2023/01/03 06:30:27;;;;;;;31.08;15.32;;;;;;;3.31;100.00;102408.25;5254644;28;20029;-71
2023/01/03 06:32:58;;;;;;;30.20;14.70;;;;;;;3.36;100.00;102408.16;5251839;28;20033;-70
2023/01/03 06:35:29;;;;;;;30.70;14.65;;;;;;;3.43;100.00;102405.38;5250177;28;20040;-70
2023/01/03 06:38:01;;;;;;;33.25;14.98;;;;;;;3.41;100.00;102403.66;5250071;28;20043;-71
2023/01/03 06:40:32;;;;;;;31.05;15.40;;;;;;;3.44;100.00;102408.88;5253751;28;20067;-70
2023/01/03 06:43:03;;;;;;;29.67;14.45;;;;;;;3.48;100.00;102405.28;5250642;28;20039;-70
2023/01/03 06:54:17;;;;;;;25.52;14.50;;;;;;;3.50;100.00;102385.84;5254434;28;20068;-70
2023/01/03 06:56:49;;;;;;;33.72;16.38;;;;;;;3.49;100.00;102376.22;5257454;28;20112;-70
2023/01/03 06:59:21;;;;;;;33.00;15.23;;;;;;;3.49;100.00;102370.94;5253736;28;20039;-70
2023/01/03 07:01:53;;;;;;;32.60;16.10;;;;;;;3.50;100.00;102385.00;5252402;28;20029;-70
2023/01/03 07:04:25;;;;;;;34.03;15.57;;;;;;;3.53;100.00;102392.84;5253224;28;20382;-70
2023/01/03 07:06:57;;;;;;;27.73;15.13;;;;;;;3.51;100.00;102384.97;5254526;28;20021;-70
2023/01/03 07:09:28;;;;;;;29.60;14.52;;;;;;;3.54;100.00;102389.31;5254385;28;20040;-70
2023/01/03 07:13:57;;;;;;;28.13;15.02;;;;;;;3.59;100.00;102398.00;5255582;28;20021;-70
2023/01/03 07:14:50;;;;;;;27.25;14.52;;;;;;;3.55;100.00;102420.09;5254178;28;20039;-70
2023/01/03 07:17:22;;;;;;;32.13;14.98;;;;;;;3.54;100.00;102437.66;5257099;28;20550;-69
2023/01/03 07:19:53;;;;;;;30.50;15.40;;;;;;;3.60;100.00;102441.09;5249562;28;20495;-70
2023/01/03 07:22:24;;;;;;;32.92;14.55;;;;;;;3.65;100.00;102437.44;5249494;28;20367;-70
2023/01/03 07:24:55;;;;;;;34.45;15.75;;;;;;;3.68;100.00;102429.47;5245187;28;20391;-70
2023/01/03 07:27:27;;;;;;;33.53;15.95;;;;;;;3.80;100.00;102425.69;5255868;28;20417;-70
2023/01/03 07:29:58;;;;;;;36.75;16.63;;;;;;;3.81;100.00;102432.69;5250562;28;20020;-70
2023/01/03 07:32:29;;;;;;;34.50;16.50;;;;;;;3.91;100.00;102426.31;5251243;28;20086;-70
2023/01/03 07:35:01;;;;;;;33.60;16.20;;;;;;;4.00;100.00;102430.50;5254829;28;20033;-71
2023/01/03 07:37:32;;;;;;;36.97;16.55;;;;;;;4.01;100.00;102426.94;5253949;28;20052;-71
2023/01/03 07:40:04;;;;;;;43.28;17.42;;;;;;;3.97;100.00;102425.28;5260691;28;20064;-71
2023/01/03 07:45:25;;;;;;;45.88;20.00;;;;;;;4.04;100.00;102426.00;5257970;28;20423;-71
2023/01/03 07:47:57;;;;;;;42.95;18.77;;;;;;;4.14;100.00;102427.50;5257811;28;20040;-71
2023/01/03 07:50:28;;;;;;;45.45;20.02;;;;;;;4.09;100.00;102427.63;5251856;28;20472;-70
2023/01/03 07:52:59;;;;;;;49.78;20.55;;;;;;;4.15;100.00;102441.59;5246225;28;20037;-71
2023/01/03 07:55:32;;;;;;;48.28;22.17;;;;;;;4.10;100.00;102439.06;5252245;28;20036;-70
2023/01/03 07:58:03;;;;;;;47.78;21.17;;;;;;;4.07;100.00;102445.28;5254931;28;20028;-71
2023/01/03 08:00:34;;;;;;;42.47;18.30;;;;;;;4.12;100.00;102443.41;5255361;28;20055;-71
2023/01/03 08:03:07;;;;;;;41.25;18.88;;;;;;;4.07;100.00;102452.34;5253342;28;20442;-71
2023/01/03 08:05:38;;;;;;;42.60;18.50;;;;;;;4.05;100.00;102447.09;5250330;28;20098;-70
2023/01/03 08:08:09;;;;;;;41.00;17.63;;;;;;;4.09;100.00;102461.97;5254131;28;20020;-70
2023/01/03 08:13:31;;;;;;;40.70;19.45;;;;;;;4.19;100.00;102462.63;5253733;28;20044;-71
2023/01/03 08:16:03;;;;;;;47.38;19.58;;;;;;;4.23;100.00;102468.69;5253399;28;20454;-71
2023/01/03 08:18:34;;;;;;;50.30;20.75;;;;;;;4.32;100.00;102463.22;5248649;28;20069;-71
2023/01/03 08:21:07;;;;;;;44.90;19.58;;;;;;;4.36;100.00;102477.22;5255580;28;20029;-71
2023/01/03 08:23:39;;;;;;;48.15;20.67;;;;;;;4.43;100.00;102481.41;5249383;28;20045;-71
2023/01/03 08:26:14;;;;;;;50.92;21.38;;;;;;;4.41;100.00;102476.19;5246770;28;20090;-71
2023/01/03 08:28:46;;;;;;;60.53;23.25;;;;;;;4.47;100.00;102475.19;5249792;28;20040;-71
2023/01/03 08:31:20;;;;;;;48.10;20.48;;;;;;;4.56;100.00;102466.13;5251619;28;20048;-71
2023/01/03 08:34:00;;;;;;;50.45;21.33;;;;;;;4.67;100.00;102469.38;5254831;28;20540;-71
2023/01/03 08:36:40;;;;;;;52.35;22.30;;;;;;;4.68;100.00;102472.00;5255329;28;20033;-71
2023/01/03 08:39:15;;;;;;;51.13;21.25;;;;;;;4.76;100.00;102473.56;5250997;28;20029;-71
2023/01/03 08:41:52;;;;;;;52.03;21.67;;;;;;;4.80;100.00;102481.38;5253695;28;20036;-71
2023/01/03 08:44:24;;;;;;;50.67;22.00;;;;;;;4.81;100.00;102483.09;5251330;28;20037;-71
2023/01/03 08:46:59;;;;;;;53.70;21.95;;;;;;;4.89;100.00;102482.94;5258149;28;20052;-71
2023/01/03 08:49:30;;;;;;;56.65;22.75;;;;;;;4.84;100.00;102487.47;5258324;28;20102;-70
2023/01/03 08:52:03;;;;;;;58.92;23.58;;;;;;;4.89;100.00;102482.94;5261093;28;20017;-71
2023/01/03 08:54:34;;;;;;;64.05;22.45;;;;;;;4.93;100.00;102496.91;5256342;28;20036;-71
2023/01/03 08:57:05;;;;;;;49.58;21.73;;;;;;;5.08;100.00;102489.47;5263920;28;20039;-71
2023/01/03 08:59:37;;;;;;;57.63;22.92;;;;;;;5.01;100.00;102495.81;5267636;28;20029;-72
2023/01/03 09:02:08;;;;;;;55.63;22.73;;;;;;;5.06;100.00;102499.22;5254263;28;20108;-71
2023/01/03 09:04:39;;;;;;;58.80;23.85;;;;;;;5.08;100.00;102496.50;5256015;28;20108;-71
2023/01/03 09:07:11;;;;;;;67.28;23.73;;;;;;;5.12;100.00;102498.19;5257268;28;20025;-71
2023/01/03 09:09:42;;;;;;;62.97;23.02;;;;;;;5.18;100.00;102494.47;5249851;28;20126;-69
2023/01/03 09:12:13;;;;;;;58.70;24.35;;;;;;;5.18;100.00;102497.13;5258679;28;20035;-70
2023/01/03 09:14:44;;;;;;;55.95;23.73;;;;;;;5.30;100.00;102497.66;5252834;28;20044;-71
2023/01/03 09:17:16;;;;;;;59.88;24.05;;;;;;;5.26;100.00;102506.59;5255162;28;20028;-71
2023/01/03 09:19:47;;;;;;;56.42;23.15;;;;;;;5.29;100.00;102508.28;5260626;28;20049;-71
2023/01/03 09:22:18;;;;;;;60.92;24.30;;;;;;;5.29;100.00;102511.81;5253600;28;20032;-71
2023/01/03 09:24:49;;;;;;;61.53;24.30;;;;;;;5.33;100.00;102506.41;5252000;28;20395;-71
2023/01/03 09:27:21;;;;;;;62.85;24.15;;;;;;;5.36;100.00;102507.22;5247611;28;20031;-71
2023/01/03 09:29:52;;;;;;;63.00;24.55;;;;;;;5.39;100.00;102511.53;5252928;28;20025;-71
2023/01/03 09:32:23;;;;;;;57.00;23.65;;;;;;;5.41;100.00;102504.47;5255243;28;20064;-71
2023/01/03 09:34:55;;;;;;;55.30;22.70;;;;;;;5.44;100.00;102502.56;5253562;28;20121;-71
2023/01/03 09:37:26;;;;;;;54.60;22.45;;;;;;;5.46;100.00;102502.53;5262248;28;20032;-71
2023/01/03 09:39:57;;;;;;;56.28;21.92;;;;;;;5.50;100.00;102506.81;5257674;28;20032;-71
2023/01/03 09:45:31;;;;;;;53.28;21.40;;;;;;;5.61;100.00;102511.81;5248419;28;20495;-71
2023/01/03 09:48:04;;;;;;;33.55;15.15;;;;;;;5.72;100.00;102507.09;5257996;28;20047;-71
2023/01/03 09:50:37;;;;;;;46.38;20.20;;;;;;;5.70;100.00;102507.13;5253072;28;20028;-71
2023/01/03 10:05:55;;;;;;;41.75;17.15;;;;;;;5.83;100.00;102491.75;5248505;28;20049;-71
2023/01/03 10:08:53;;;;;;;37.30;16.75;;;;;;;5.90;100.00;102492.41;5250390;28;20044;-71
2023/01/03 10:11:32;;;;;;;44.83;17.52;;;;;;;5.94;100.00;102487.88;5248975;28;20182;-71
2023/01/03 10:14:13;;;;;;;37.53;16.17;;;;;;;5.98;100.00;102495.72;5250294;28;20036;-71
2023/01/03 10:17:13;;;;;;;41.15;17.83;;;;;;;5.97;100.00;102496.66;5247992;28;20039;-71
2023/01/03 10:20:08;;;;;;;41.50;17.42;;;;;;;6.04;100.00;102494.66;5262555;28;20055;-71
2023/01/03 10:22:40;;;;;;;39.10;16.75;;;;;;;6.03;100.00;102501.75;5257025;28;20033;-71
2023/01/03 10:25:20;;;;;;;32.30;16.05;;;;;;;6.13;100.00;102498.81;5252352;28;20082;-71
2023/01/03 10:27:58;;;;;;;36.20;17.35;;;;;;;6.12;100.00;102503.25;5241178;28;20071;-70
2023/01/03 10:30:48;;;;;;;36.67;16.73;;;;;;;6.20;100.00;102508.31;5256672;28;20500;-71
2023/01/03 10:33:44;;;;;;;39.25;17.63;;;;;;;6.23;100.00;102494.94;5254121;28;20490;-71
2023/01/03 10:36:18;;;;;;;73.10;33.92;;;;;;;6.28;100.00;102499.19;5257928;28;20445;-71
2023/01/03 10:39:07;;;;;;;45.78;19.08;;;;;;;6.32;100.00;102497.31;5246302;28;20032;-71
2023/01/03 10:41:45;;;;;;;33.45;15.32;;;;;;;6.43;100.00;102496.97;5256382;28;20051;-71
2023/01/03 10:44:27;;;;;;;32.95;15.52;;;;;;;6.37;100.00;102499.84;5250261;28;20043;-71
2023/01/03 10:47:08;;;;;;;33.20;15.32;;;;;;;6.40;100.00;102502.38;5251652;28;20022;-71
2023/01/03 10:49:43;;;;;;;29.27;13.50;;;;;;;6.50;100.00;102495.88;5252520;28;20029;-71
2023/01/03 10:52:21;;;;;;;30.75;15.30;;;;;;;6.51;100.00;102494.94;5255392;28;20044;-71
2023/01/03 10:54:58;;;;;;;30.08;14.38;;;;;;;6.58;100.00;102495.63;5252242;28;20457;-71
2023/01/03 10:57:58;;;;;;;29.25;14.35;;;;;;;6.58;100.00;102498.28;5250865;28;20037;-71
2023/01/03 11:00:35;;;;;;;24.50;12.68;;;;;;;6.64;100.00;102490.09;5262921;28;20114;-71
2023/01/03 11:03:24;;;;;;;26.80;13.63;;;;;;;6.63;100.00;102491.00;5254298;28;20111;-71
2023/01/03 11:05:56;;;;;;;24.92;12.77;;;;;;;6.65;100.00;102482.09;5244255;28;20387;-71
2023/01/03 11:08:48;;;;;;;25.88;13.15;;;;;;;6.61;100.00;102483.09;5254195;28;20944;-70
2023/01/03 11:11:40;;;;;;;27.92;13.57;;;;;;;6.66;100.00;102477.66;5247959;28;20574;-71
2023/01/03 11:14:26;;;;;;;24.75;13.02;;;;;;;6.66;100.00;102480.31;5256294;28;20039;-71
2023/01/03 11:17:04;;;;;;;28.00;13.82;;;;;;;6.64;100.00;102474.19;5249323;28;21035;-71
2023/01/03 11:19:35;;;;;;;28.40;12.93;;;;;;;6.66;100.00;102481.16;5253928;28;20410;-71
2023/01/03 11:22:25;;;;;;;26.90;13.50;;;;;;;6.70;100.00;102487.25;5259576;28;20025;-71
2023/01/03 11:25:06;;;;;;;26.27;12.35;;;;;;;6.70;100.00;102484.59;5257303;28;20068;-71
2023/01/03 11:28:09;;;;;;;25.00;12.45;;;;;;;6.73;100.00;102479.19;5247832;28;20047;-71
2023/01/03 11:30:56;;;;;;;26.27;12.95;;;;;;;6.70;100.00;102478.44;5256983;28;20037;-71
2023/01/03 11:33:34;;;;;;;28.58;13.15;;;;;;;6.66;100.00;102482.97;5252213;28;20052;-71
2023/01/03 11:36:23;;;;;;;23.20;11.93;;;;;;;6.76;100.00;102480.84;5243519;28;20029;-71
2023/01/03 11:39:23;;;;;;;22.95;12.10;;;;;;;6.70;100.00;102479.28;5250574;28;20040;-72
2023/01/03 11:42:13;;;;;;;25.80;14.48;;;;;;;6.67;100.00;102482.03;5252102;28;20028;-71
2023/01/03 11:45:04;;;;;;;25.33;13.60;;;;;;;6.64;100.00;102474.19;5255717;28;20040;-71
2023/01/03 11:47:57;;;;;;;24.55;13.63;;;;;;;6.60;100.00;102473.44;5247825;28;21379;-71
2023/01/03 11:50:46;;;;;;;25.55;13.27;;;;;;;6.57;100.00;102477.97;5253439;28;20032;-71
2023/01/03 11:53:26;;;;;;;28.58;14.60;;;;;;;6.55;100.00;102472.69;5242573;28;20365;-71
2023/01/03 11:56:10;;;;;;;25.42;14.38;;;;;;;6.55;100.00;102474.50;5250804;28;20040;-71
2023/01/03 11:58:50;;;;;;;24.98;13.32;;;;;;;6.56;100.00;102460.31;5252122;28;20028;-71
2023/01/03 12:01:43;;;;;;;27.00;12.15;;;;;;;6.57;100.00;102462.91;5254097;28;20032;-71
2023/01/03 12:04:28;;;;;;;23.33;12.48;;;;;;;6.59;100.00;102452.25;5246685;28;20515;-70
2023/01/03 12:07:16;;;;;;;18.70;11.98;;;;;;;6.68;100.00;102450.16;5251279;28;20032;-71
2023/01/03 12:10:12;;;;;;;20.20;11.18;;;;;;;6.62;100.00;102452.16;5256069;28;20029;-71
2023/01/03 12:13:22;;;;;;;20.23;10.80;;;;;;;6.66;100.00;102444.03;5254371;28;20033;-71
2023/01/03 12:16:22;;;;;;;17.17;9.48;;;;;;;6.72;100.00;102437.66;5255591;28;20559;-71
2023/01/03 12:19:17;;;;;;;18.17;9.18;;;;;;;6.75;100.00;102429.59;5256269;28;20182;-71
2023/01/03 12:21:57;;;;;;;19.67;10.75;;;;;;;6.69;100.00;102424.47;5258368;28;20390;-71
2023/01/03 12:24:43;;;;;;;16.15;8.40;;;;;;;6.79;100.00;102427.72;5257355;28;20032;-71
2023/01/03 12:27:33;;;;;;;14.52;8.27;;;;;;;6.75;100.00;102419.00;5257046;28;20119;-71
2023/01/03 12:30:06;;;;;;;13.77;7.95;;;;;;;6.77;100.00;102413.59;5256473;28;20039;-71
2023/01/03 12:32:42;;;;;;;13.73;8.48;;;;;;;6.86;100.00;102422.13;5258045;28;20029;-71
2023/01/03 12:35:26;;;;;;;16.75;9.80;;;;;;;6.83;100.00;102416.06;5259154;28;20568;-71
2023/01/03 12:37:58;;;;;;;17.17;10.10;;;;;;;6.88;100.00;102419.41;5249977;28;20032;-71
2023/01/03 12:40:54;;;;;;;19.55;10.23;;;;;;;6.89;100.00;102420.28;5257634;28;20498;-71
2023/01/03 12:43:37;;;;;;;18.65;10.25;;;;;;;7.00;100.00;102404.81;5253267;28;20487;-71
2023/01/03 12:46:15;;;;;;;20.52;10.20;;;;;;;6.94;100.00;102420.97;5253477;28;20029;-71
2023/01/03 12:49:15;;;;;;;16.08;9.75;;;;;;;6.98;100.00;102412.88;5251793;28;20051;-71
2023/01/03 12:51:47;;;;;;;16.60;9.38;;;;;;;6.99;100.00;102411.94;5260239;28;20025;-71
2023/01/03 12:54:32;;;;;;;17.85;9.70;;;;;;;7.02;100.00;102405.66;5249804;28;20044;-71
2023/01/03 12:57:03;;;;;;;17.35;9.48;;;;;;;7.04;100.00;102409.97;5255990;28;20037;-71
2023/01/03 12:59:53;;;;;;;18.85;10.10;;;;;;;7.08;100.00;102416.03;5256320;28;20029;-71
2023/01/03 13:03:14;;;;;;;18.02;10.23;;;;;;;7.10;100.00;102410.69;5262580;28;20048;-71